createdAt,value
2023-03-05T00:02:49.010Z,100169.00
2023-03-05T00:05:56.728Z,100166.81
2023-03-05T00:08:58.973Z,100160.72
2023-03-05T00:12:00.655Z,100161.72
2023-03-05T00:15:02.372Z,100160.28
2023-03-05T00:18:04.137Z,100154.03
2023-03-05T00:21:17.388Z,100158.72
2023-03-05T00:24:19.053Z,100161.50
2023-03-05T00:27:20.763Z,100165.50
2023-03-05T00:30:22.433Z,100175.97
2023-03-05T00:33:24.061Z,100166.81
2023-03-05T00:36:25.923Z,100165.06
2023-03-05T00:39:27.668Z,100168.06
2023-03-05T00:42:29.362Z,100169.84
2023-03-05T00:45:31.171Z,100165.03
2023-03-05T00:48:32.849Z,100165.25
2023-03-05T00:51:34.882Z,100169.91
2023-03-05T00:54:36.541Z,100168.91
2023-03-05T00:57:38.197Z,100164.16
2023-03-05T01:00:40.244Z,100163.03
2023-03-05T01:03:42.307Z,100164.88
2023-03-05T01:06:46.208Z,100173.06
2023-03-05T01:09:47.866Z,100167.06
2023-03-05T01:12:49.864Z,100165.38
2023-03-05T01:15:51.697Z,100168.81
2023-03-05T01:18:53.461Z,100172.19
2023-03-05T01:21:55.212Z,100160.91
2023-03-05T01:24:56.986Z,100167.03
2023-03-05T01:27:58.810Z,100170.56
2023-03-05T01:31:00.473Z,100169.72
2023-03-05T01:34:02.585Z,100167.62
2023-03-05T01:37:04.294Z,100169.37
2023-03-05T01:40:06.664Z,100166.59
2023-03-05T01:43:30.764Z,100168.41
2023-03-05T01:46:37.427Z,100163.56
2023-03-05T01:49:41.463Z,100165.16
2023-03-05T01:52:54.900Z,100169.72
2023-03-05T01:55:57.318Z,100172.28
2023-03-05T01:59:03.683Z,100171.72
2023-03-05T02:02:08.054Z,100165.63
2023-03-05T02:05:32.677Z,100171.16
2023-03-05T02:08:34.416Z,100170.16
2023-03-05T02:11:36.763Z,100163.59
2023-03-05T02:14:41.525Z,100162.37
2023-03-05T02:17:43.528Z,100161.94
2023-03-05T02:20:51.054Z,100153.94
2023-03-05T02:23:52.566Z,100153.16
2023-03-05T02:26:54.418Z,100155.25
2023-03-05T02:29:56.067Z,100159.16
2023-03-05T02:32:58.192Z,100157.25
2023-03-05T02:35:59.912Z,100159.16
2023-03-05T02:39:01.911Z,100149.78
2023-03-05T02:42:04.048Z,100159.84
2023-03-05T02:45:06.144Z,100155.00
2023-03-05T02:48:07.886Z,100152.81
2023-03-05T02:51:10.714Z,100160.47
2023-03-05T02:54:12.494Z,100156.75
2023-03-05T02:57:14.141Z,100151.81
2023-03-05T03:00:16.575Z,100149.91
2023-03-05T03:03:18.508Z,100148.09
2023-03-05T03:06:20.285Z,100146.22
2023-03-05T03:09:22.004Z,100151.72
2023-03-05T03:12:23.647Z,100147.41
2023-03-05T03:15:25.306Z,100152.75
2023-03-05T03:18:27.196Z,100151.94
2023-03-05T03:21:29.092Z,100157.41
2023-03-05T03:24:31.729Z,100152.37
2023-03-05T03:27:33.630Z,100149.41
2023-03-05T03:30:35.367Z,100154.88
2023-03-05T03:33:37.085Z,100142.88
2023-03-05T03:36:39.038Z,100137.06
2023-03-05T03:39:40.747Z,100139.00
2023-03-05T03:42:42.401Z,100141.78
2023-03-05T03:45:44.190Z,100139.88
2023-03-05T03:48:49.506Z,100138.87
2023-03-05T03:51:52.657Z,100135.53
2023-03-05T03:54:55.831Z,100132.97
2023-03-05T03:57:57.500Z,100128.09
2023-03-05T04:00:59.149Z,100128.97
2023-03-05T04:04:01.067Z,100127.41
2023-03-05T04:07:02.849Z,100135.09
2023-03-05T04:10:04.763Z,100129.66
2023-03-05T04:13:06.988Z,100127.63
2023-03-05T04:16:08.766Z,100128.19
2023-03-05T04:19:10.459Z,100130.50
2023-03-05T04:22:14.337Z,100128.31
2023-03-05T04:25:16.080Z,100127.94
2023-03-05T04:28:17.986Z,100122.00
2023-03-05T04:31:20.719Z,100123.66
2023-03-05T04:34:22.477Z,100126.00
2023-03-05T04:37:25.539Z,100123.72
2023-03-05T04:40:27.164Z,100119.16
2023-03-05T04:43:28.792Z,100119.84
2023-03-05T04:46:30.570Z,100123.31
2023-03-05T04:49:32.362Z,100121.63
2023-03-05T04:52:34.300Z,100120.75
2023-03-05T04:55:36.223Z,100127.53
2023-03-05T04:58:38.068Z,100120.88
2023-03-05T05:01:39.958Z,100119.19
2023-03-05T05:04:45.152Z,100120.38
2023-03-05T05:07:47.275Z,100120.59
2023-03-05T05:11:03.603Z,100120.16
2023-03-05T05:14:05.344Z,100122.69
2023-03-05T05:17:07.188Z,100122.34
2023-03-05T05:20:11.561Z,100125.72
2023-03-05T05:23:13.350Z,100131.25
2023-03-05T05:26:15.276Z,100123.53
2023-03-05T05:29:17.116Z,100127.31
2023-03-05T05:32:22.330Z,100124.56
2023-03-05T05:35:24.179Z,100126.09
2023-03-05T05:38:25.900Z,100132.81
2023-03-05T05:41:27.539Z,100132.66
2023-03-05T05:44:29.409Z,100137.50
2023-03-05T05:47:31.077Z,100139.69
2023-03-05T05:50:32.746Z,100140.66
2023-03-05T05:53:34.526Z,100138.50
2023-03-05T05:56:37.228Z,100150.88
2023-03-05T05:59:39.270Z,100145.72
2023-03-05T06:02:42.083Z,100155.31
2023-03-05T06:05:43.982Z,100155.50
2023-03-05T06:08:46.092Z,100160.44
2023-03-05T06:11:47.943Z,100155.41
2023-03-05T06:14:49.831Z,100154.72
2023-03-05T06:17:52.869Z,100164.00
2023-03-05T06:20:59.612Z,100165.31
2023-03-05T06:24:01.268Z,100157.78
2023-03-05T06:27:04.163Z,100165.19
2023-03-05T06:30:07.250Z,100162.72
2023-03-05T06:33:09.116Z,100155.28
2023-03-05T06:36:16.873Z,100162.41
2023-03-05T06:39:18.683Z,100164.56
2023-03-05T06:42:21.448Z,100164.28
2023-03-05T06:45:23.266Z,100169.88
2023-03-05T06:48:25.302Z,100166.50
2023-03-05T06:51:32.971Z,100162.34
2023-03-05T06:54:34.747Z,100157.50
2023-03-05T06:57:39.370Z,100154.12
2023-03-05T07:00:41.609Z,100156.19
2023-03-05T07:03:43.804Z,100155.19
2023-03-05T07:06:46.189Z,100162.91
2023-03-05T07:09:50.334Z,100150.31
2023-03-05T07:12:52.042Z,100160.28
2023-03-05T07:15:54.287Z,100155.41
2023-03-05T07:18:58.604Z,100160.22
2023-03-05T07:22:00.262Z,100165.75
2023-03-05T07:25:01.936Z,100163.03
2023-03-05T07:28:08.381Z,100156.44
2023-03-05T07:31:17.955Z,100160.88
2023-03-05T07:34:20.196Z,100164.09
2023-03-05T07:37:21.833Z,100167.09
2023-03-05T07:40:23.595Z,100163.19
2023-03-05T07:43:25.212Z,100153.22
2023-03-05T07:46:30.236Z,100157.50
2023-03-05T07:49:31.963Z,100158.81
2023-03-05T07:52:33.769Z,100151.09
2023-03-05T07:55:35.607Z,100157.59
2023-03-05T07:58:37.593Z,100152.66
2023-03-05T08:01:39.777Z,100141.47
2023-03-05T08:04:43.295Z,100156.72
2023-03-05T08:07:45.017Z,100148.22
2023-03-05T08:10:46.842Z,100152.50
2023-03-05T08:13:48.591Z,100149.75
2023-03-05T08:16:52.325Z,100146.38
2023-03-05T08:19:57.692Z,100152.59
2023-03-05T08:22:59.304Z,100153.16
2023-03-05T08:26:00.938Z,100151.47
2023-03-05T08:29:03.404Z,100152.41
2023-03-05T08:32:05.482Z,100150.59
2023-03-05T08:35:07.770Z,100151.03
2023-03-05T08:38:09.550Z,100147.72
2023-03-05T08:41:11.469Z,100145.72
2023-03-05T08:44:13.130Z,100153.03
2023-03-05T08:47:14.851Z,100148.16
2023-03-05T08:50:17.964Z,100140.66
2023-03-05T08:53:19.580Z,100140.28
2023-03-05T08:56:21.578Z,100144.63
2023-03-05T08:59:23.365Z,100143.13
2023-03-05T09:02:25.063Z,100149.50
2023-03-05T09:05:26.719Z,100148.22
2023-03-05T09:08:29.307Z,100150.78
2023-03-05T09:11:31.014Z,100152.03
2023-03-05T09:14:32.661Z,100143.06
2023-03-05T09:17:38.761Z,100149.37
2023-03-05T09:20:40.432Z,100149.31
2023-03-05T09:23:43.284Z,100144.59
2023-03-05T09:26:45.037Z,100152.09
2023-03-05T09:29:46.819Z,100156.22
2023-03-05T09:32:48.496Z,100150.09
2023-03-05T09:35:50.291Z,100144.47
2023-03-05T09:38:52.519Z,100137.81
2023-03-05T09:42:15.578Z,100141.69
2023-03-05T09:45:28.658Z,100139.91
2023-03-05T09:48:48.076Z,100140.66
2023-03-05T09:51:54.715Z,100135.72
2023-03-05T09:54:57.957Z,100129.84
2023-03-05T09:58:06.427Z,100130.22
2023-03-05T10:01:15.553Z,100122.31
2023-03-05T10:04:28.793Z,100124.50
2023-03-05T10:07:33.848Z,100133.62
2023-03-05T10:10:47.373Z,100139.41
2023-03-05T10:13:50.677Z,100120.16
2023-03-05T10:17:01.772Z,100131.06
2023-03-05T10:20:07.428Z,100127.44
2023-03-05T10:23:09.239Z,100118.84
2023-03-05T10:26:39.153Z,100105.28
2023-03-05T10:29:55.723Z,100094.63
2023-03-05T10:33:35.772Z,100092.63
2023-03-05T10:36:52.400Z,100090.69
2023-03-05T10:40:16.216Z,100091.81
2023-03-05T10:43:45.701Z,100094.13
2023-03-05T10:46:49.267Z,100092.66
2023-03-05T10:49:54.380Z,100089.38
2023-03-05T10:53:08.285Z,100090.78
2023-03-05T10:56:12.286Z,100089.44
2023-03-05T10:59:14.177Z,100089.09
2023-03-05T11:02:16.398Z,100079.75
2023-03-05T11:06:00.355Z,100071.25
2023-03-05T11:09:21.030Z,100076.50
2023-03-05T11:12:27.076Z,100065.62
2023-03-05T11:15:30.800Z,100066.09
2023-03-05T11:18:36.751Z,100058.03
2023-03-05T11:21:38.788Z,100062.12
2023-03-05T11:24:42.165Z,100054.66
2023-03-05T11:27:54.549Z,100039.91
2023-03-05T11:31:02.882Z,100044.72
2023-03-05T11:34:21.433Z,100036.22
2023-03-05T11:37:29.244Z,100032.56
2023-03-05T11:40:32.997Z,100020.44
2023-03-05T11:43:38.228Z,100022.66
2023-03-05T11:46:54.464Z,100020.59
2023-03-05T11:50:12.778Z,100021.53
2023-03-05T11:53:32.295Z,100008.47
2023-03-05T11:56:37.636Z,100012.56
2023-03-05T11:59:40.375Z,100006.66
2023-03-05T12:02:43.423Z,100005.75
2023-03-05T12:05:49.672Z,99999.56
2023-03-05T12:08:57.623Z,100000.03
2023-03-05T12:12:22.058Z,99990.56
2023-03-05T12:15:35.025Z,99994.66
2023-03-05T12:19:03.103Z,100005.75
2023-03-05T12:22:15.415Z,99998.06
2023-03-05T12:25:30.153Z,99987.94
2023-03-05T12:28:31.914Z,99982.56
2023-03-05T12:31:40.354Z,99975.47
2023-03-05T12:34:44.280Z,99979.16
2023-03-05T12:37:51.758Z,99973.22
2023-03-05T12:40:53.948Z,99971.06
2023-03-05T12:44:07.791Z,99975.69
2023-03-05T12:47:12.881Z,99967.06
2023-03-05T12:50:29.860Z,99970.37
2023-03-05T12:53:31.815Z,99969.31
2023-03-05T12:56:36.396Z,99974.06
2023-03-05T12:59:50.468Z,99971.44
2023-03-05T13:02:58.791Z,99961.03
2023-03-05T13:06:01.614Z,99958.31
2023-03-05T13:09:27.843Z,99960.84
2023-03-05T13:12:31.338Z,99958.72
2023-03-05T13:15:34.857Z,99955.06
2023-03-05T13:18:41.427Z,99950.34
2023-03-05T13:21:46.718Z,99957.19
2023-03-05T13:24:48.828Z,99957.16
2023-03-05T13:27:52.251Z,99947.84
2023-03-05T13:31:02.810Z,99950.44
2023-03-05T13:34:26.554Z,99947.53
2023-03-05T13:37:37.505Z,99941.56
2023-03-05T13:40:41.755Z,99938.28
2023-03-05T13:43:53.157Z,99939.41
2023-03-05T13:47:10.944Z,99938.50
2023-03-05T13:50:24.844Z,99937.94
2023-03-05T13:53:31.891Z,99932.66
2023-03-05T13:56:34.219Z,99916.63
2023-03-05T13:59:41.236Z,99918.88
2023-03-05T14:02:44.757Z,99929.62
2023-03-05T14:05:48.080Z,99926.72
2023-03-05T14:08:59.557Z,99919.41
2023-03-05T14:12:07.399Z,99924.94
2023-03-05T14:15:34.973Z,99919.44
2023-03-05T14:18:39.799Z,99913.94
2023-03-05T14:21:51.349Z,99914.75
2023-03-05T14:24:53.894Z,99900.13
2023-03-05T14:27:57.604Z,99903.00
2023-03-05T14:31:00.630Z,99912.06
2023-03-05T14:34:07.331Z,99901.63
2023-03-05T14:37:40.125Z,99911.06
2023-03-05T14:40:42.716Z,99908.97
2023-03-05T14:43:45.228Z,99903.03
2023-03-05T14:46:52.207Z,99901.94
2023-03-05T14:49:54.645Z,99904.28
2023-03-05T14:53:01.008Z,99907.13
2023-03-05T14:56:03.590Z,99903.59
2023-03-05T14:59:06.250Z,99903.63
2023-03-05T15:02:16.130Z,99896.72
2023-03-05T15:05:19.398Z,99891.47
2023-03-05T15:08:25.952Z,99905.19
2023-03-05T15:11:31.204Z,99895.09
2023-03-05T15:14:33.914Z,99906.03
2023-03-05T15:17:39.201Z,99903.34
2023-03-05T15:20:41.816Z,99893.63
2023-03-05T15:23:45.498Z,99907.44
2023-03-05T15:26:50.143Z,99899.47
2023-03-05T15:29:53.247Z,99904.34
2023-03-05T15:32:57.254Z,99908.38
2023-03-05T15:36:00.180Z,99906.62
2023-03-05T15:39:02.428Z,99908.31
2023-03-05T15:42:06.369Z,99913.41
2023-03-05T15:45:09.617Z,99906.16
2023-03-05T15:48:14.070Z,99875.72
2023-03-05T15:51:18.036Z,99879.56
2023-03-05T15:54:20.418Z,99883.91
2023-03-05T15:57:27.330Z,99880.81
2023-03-05T16:00:32.007Z,99880.16
2023-03-05T16:03:34.742Z,99888.25
2023-03-05T16:06:37.796Z,99891.41
2023-03-05T16:09:44.965Z,99897.31
2023-03-05T16:12:51.244Z,99904.09
2023-03-05T16:15:56.002Z,99904.59
2023-03-05T16:19:03.639Z,99910.47
2023-03-05T16:22:07.951Z,99907.09
2023-03-05T16:25:10.601Z,99905.41
2023-03-05T16:28:13.212Z,99907.09
2023-03-05T16:31:15.961Z,99910.03
2023-03-05T16:34:18.996Z,99914.12
2023-03-05T16:37:24.315Z,99909.31
2023-03-05T16:40:38.698Z,99909.06
2023-03-05T16:43:50.208Z,99912.31
2023-03-05T16:46:54.086Z,99917.84
2023-03-05T16:49:56.656Z,99917.69
2023-03-05T16:52:59.326Z,99923.50
2023-03-05T16:56:06.455Z,99926.66
2023-03-05T16:59:10.771Z,99916.66
2023-03-05T17:02:15.764Z,99922.63
2023-03-05T17:05:18.783Z,99926.47
2023-03-05T17:08:23.171Z,99937.50
2023-03-05T17:11:26.510Z,99938.50
2023-03-05T17:14:30.821Z,99939.31
2023-03-05T17:17:33.840Z,99940.19
2023-03-05T17:20:37.201Z,99945.50
2023-03-05T17:23:40.647Z,99941.94
2023-03-05T17:26:46.466Z,99946.03
2023-03-05T17:29:50.669Z,99942.09
2023-03-05T17:32:55.749Z,99945.13
2023-03-05T17:35:59.034Z,99944.91
2023-03-05T17:39:01.988Z,99949.63
2023-03-05T17:42:04.783Z,99949.53
2023-03-05T17:45:10.286Z,99950.25
2023-03-05T17:48:13.881Z,99951.03
2023-03-05T17:51:17.491Z,99947.50
2023-03-05T17:54:20.614Z,99952.41
2023-03-05T17:57:23.677Z,99954.06
2023-03-05T18:00:29.436Z,99950.28
2023-03-05T18:03:31.898Z,99944.16
2023-03-05T18:06:34.315Z,99939.13
2023-03-05T18:09:37.289Z,99942.34
2023-03-05T18:12:41.265Z,99943.22
2023-03-05T18:15:48.092Z,99943.22
2023-03-05T18:18:50.341Z,99943.78
2023-03-05T18:21:52.687Z,99938.09
2023-03-05T18:24:55.767Z,99936.94
2023-03-05T18:28:05.290Z,99935.78
2023-03-05T18:31:08.966Z,99936.94
2023-03-05T18:34:13.166Z,99934.19
2023-03-05T18:37:15.792Z,99929.75
2023-03-05T18:40:29.662Z,99931.00
2023-03-05T18:43:32.338Z,99936.25
2023-03-05T18:46:35.518Z,99939.50
2023-03-05T18:49:38.550Z,99938.16
2023-03-05T18:52:42.087Z,99938.28
2023-03-05T18:55:46.035Z,99929.84
2023-03-05T18:58:48.980Z,99933.47
2023-03-05T19:01:51.932Z,99932.06
2023-03-05T19:04:54.342Z,99937.12
2023-03-05T19:07:59.158Z,99933.03
2023-03-05T19:11:02.370Z,99938.69
2023-03-05T19:14:06.524Z,99935.69
2023-03-05T19:17:08.999Z,99937.56
2023-03-05T19:20:14.041Z,99936.59
2023-03-05T19:23:16.669Z,99942.25
2023-03-05T19:26:19.252Z,99941.72
2023-03-05T19:29:24.572Z,99937.78
2023-03-05T19:32:27.756Z,99937.72
2023-03-05T19:35:30.597Z,99934.97
2023-03-05T19:38:32.777Z,99929.38
2023-03-05T19:41:37.362Z,99934.09
2023-03-05T19:44:39.516Z,99930.63
2023-03-05T19:47:42.885Z,99934.78
2023-03-05T19:50:45.554Z,99935.69
2023-03-05T19:53:50.263Z,99938.59
2023-03-05T19:56:55.141Z,99946.53
2023-03-05T19:59:58.766Z,99954.97
2023-03-05T20:03:01.590Z,99944.16
2023-03-05T20:06:04.320Z,99948.03
2023-03-05T20:09:08.077Z,99945.41
2023-03-05T20:12:13.992Z,99944.97
2023-03-05T20:15:17.686Z,99946.66
2023-03-05T20:18:20.325Z,99944.53
2023-03-05T20:21:27.846Z,99942.00
2023-03-05T20:24:30.237Z,99934.91
2023-03-05T20:27:34.662Z,99938.34
2023-03-05T20:30:37.688Z,99949.97
2023-03-05T20:33:40.844Z,99939.09
2023-03-05T20:36:43.890Z,99938.00
2023-03-05T20:39:46.041Z,99932.34
2023-03-05T20:42:48.807Z,99926.59
2023-03-05T20:45:53.704Z,99931.00
2023-03-05T20:48:59.989Z,99929.91
2023-03-05T20:52:02.620Z,99928.94
2023-03-05T20:55:07.388Z,99929.84
2023-03-05T20:58:10.836Z,99936.06
2023-03-05T21:01:13.630Z,99931.94
2023-03-05T21:04:16.894Z,99933.91
2023-03-05T21:07:19.381Z,99927.50
2023-03-05T21:10:23.453Z,99926.09
2023-03-05T21:13:26.347Z,99927.91
2023-03-05T21:16:28.572Z,99932.13
2023-03-05T21:19:34.522Z,99926.81
2023-03-05T21:22:37.081Z,99931.31
2023-03-05T21:25:39.950Z,99929.94
2023-03-05T21:28:42.652Z,99933.41
2023-03-05T21:31:46.150Z,99930.56
2023-03-05T21:34:48.181Z,99933.59
2023-03-05T21:37:50.562Z,99921.47
2023-03-05T21:40:54.073Z,99929.56
2023-03-05T21:43:56.354Z,99927.09
2023-03-05T21:46:59.829Z,99922.47
2023-03-05T21:50:01.698Z,99932.13
2023-03-05T21:53:03.532Z,99924.22
2023-03-05T21:56:22.197Z,99918.84
2023-03-05T21:59:23.974Z,99924.16
2023-03-05T22:02:26.072Z,99919.22
2023-03-05T22:05:27.882Z,99916.25
2023-03-05T22:08:32.719Z,99916.84
2023-03-05T22:11:34.404Z,99910.91
2023-03-05T22:14:36.415Z,99914.84
2023-03-05T22:17:38.085Z,99910.41
2023-03-05T22:20:40.205Z,99911.13
2023-03-05T22:23:41.857Z,99908.94
2023-03-05T22:26:43.581Z,99906.47
2023-03-05T22:29:45.288Z,99901.06
2023-03-05T22:32:46.886Z,99906.88
2023-03-05T22:35:48.572Z,99897.81
2023-03-05T22:38:50.792Z,99902.22
2023-03-05T22:41:52.480Z,99898.88
2023-03-05T22:44:57.788Z,99907.75
2023-03-05T22:47:59.756Z,99904.78
2023-03-05T22:51:01.461Z,99901.97
2023-03-05T22:54:03.104Z,99902.34
2023-03-05T22:57:05.410Z,99909.63
2023-03-05T23:00:14.323Z,99901.75
2023-03-05T23:03:16.316Z,99896.09
2023-03-05T23:06:17.963Z,99901.13
2023-03-05T23:09:19.646Z,99888.06
2023-03-05T23:12:21.450Z,99886.41
2023-03-05T23:15:29.782Z,99880.63
2023-03-05T23:18:32.037Z,99889.56
2023-03-05T23:21:33.698Z,99889.13
2023-03-05T23:24:36.567Z,99872.09
2023-03-05T23:27:38.384Z,99873.94
2023-03-05T23:30:40.049Z,99881.88
2023-03-05T23:33:41.765Z,99872.09
2023-03-05T23:36:43.396Z,99875.03
2023-03-05T23:39:45.029Z,99885.59
2023-03-05T23:42:46.761Z,99878.50
2023-03-05T23:45:49.464Z,99877.31
2023-03-05T23:48:51.114Z,99877.72
2023-03-05T23:51:53.369Z,99873.94
2023-03-05T23:54:55.427Z,99875.12
2023-03-05T23:57:57.142Z,99875.12
